sensor_id;sensor_type;location;lat;lon;timestamp;pressure;altitude;pressure_sealevel;temperature;humidity
85153;BME280;75520;43.358;19.362;2024-02-04T00:00:15;93679.38;;;-1.87;86.23
85153;BME280;75520;43.358;19.362;2024-02-04T00:02:43;93680.16;;;-1.87;87.25
85153;BME280;75520;43.358;19.362;2024-02-04T00:05:08;93644.44;;;-2.08;90.48
85153;BME280;75520;43.358;19.362;2024-02-04T00:07:34;93674.94;;;-1.87;89.74
85153;BME280;75520;43.358;19.362;2024-02-04T00:09:59;93676.75;;;-1.87;89.59
85153;BME280;75520;43.358;19.362;2024-02-04T00:12:25;93671.56;;;-1.87;89.47
85153;BME280;75520;43.358;19.362;2024-02-04T00:14:51;93663.19;;;-1.89;90.02
85153;BME280;75520;43.358;19.362;2024-02-04T00:17:17;93659.50;;;-1.93;89.77
85153;BME280;75520;43.358;19.362;2024-02-04T00:19:43;93672.03;;;-1.90;89.58
85153;BME280;75520;43.358;19.362;2024-02-04T00:22:09;93662.63;;;-1.91;88.48
85153;BME280;75520;43.358;19.362;2024-02-04T00:24:34;93664.72;;;-1.93;86.78
85153;BME280;75520;43.358;19.362;2024-02-04T00:27:00;93649.41;;;-2.06;84.95
85153;BME280;75520;43.358;19.362;2024-02-04T00:29:25;93665.66;;;-1.99;84.91
85153;BME280;75520;43.358;19.362;2024-02-04T00:31:51;93668.25;;;-1.99;87.42
85153;BME280;75520;43.358;19.362;2024-02-04T00:34:17;93671.34;;;-2.02;89.17
85153;BME280;75520;43.358;19.362;2024-02-04T00:36:42;93674.72;;;-2.02;88.95
85153;BME280;75520;43.358;19.362;2024-02-04T00:39:08;93678.09;;;-2.01;87.14
85153;BME280;75520;43.358;19.362;2024-02-04T00:41:34;93676.56;;;-2.02;86.23
85153;BME280;75520;43.358;19.362;2024-02-04T00:44:00;93679.38;;;-2.04;85.53
85153;BME280;75520;43.358;19.362;2024-02-04T00:46:25;93677.03;;;-2.05;85.51
85153;BME280;75520;43.358;19.362;2024-02-04T00:48:51;93668.88;;;-2.09;85.05
85153;BME280;75520;43.358;19.362;2024-02-04T00:51:17;93666.78;;;-2.12;84.91
85153;BME280;75520;43.358;19.362;2024-02-04T00:53:45;93675.13;;;-2.10;84.98
85153;BME280;75520;43.358;19.362;2024-02-04T00:56:10;93643.53;;;-2.35;85.76
85153;BME280;75520;43.358;19.362;2024-02-04T00:58:37;93670.09;;;-2.16;85.91
85153;BME280;75520;43.358;19.362;2024-02-04T01:01:02;93667.09;;;-2.25;90.26
85153;BME280;75520;43.358;19.362;2024-02-04T01:03:28;93687.59;;;-2.12;91.03
85153;BME280;75520;43.358;19.362;2024-02-04T01:05:54;93663.13;;;-2.28;90.70
85153;BME280;75520;43.358;19.362;2024-02-04T01:08:21;93659.97;;;-2.30;89.35
85153;BME280;75520;43.358;19.362;2024-02-04T01:10:47;93692.06;;;-2.07;90.13
85153;BME280;75520;43.358;19.362;2024-02-04T01:13:13;93694.44;;;-2.06;90.81
85153;BME280;75520;43.358;19.362;2024-02-04T01:15:38;93666.31;;;-2.26;90.13
85153;BME280;75520;43.358;19.362;2024-02-04T01:18:04;93684.03;;;-2.06;91.90
85153;BME280;75520;43.358;19.362;2024-02-04T01:20:29;93684.59;;;-2.04;91.67
85153;BME280;75520;43.358;19.362;2024-02-04T01:22:54;93676.78;;;-2.04;90.10
85153;BME280;75520;43.358;19.362;2024-02-04T01:25:20;93677.03;;;-2.05;89.60
85153;BME280;75520;43.358;19.362;2024-02-04T01:27:45;93673.84;;;-2.07;89.26
85153;BME280;75520;43.358;19.362;2024-02-04T01:30:11;93672.50;;;-2.10;87.97
85153;BME280;75520;43.358;19.362;2024-02-04T01:32:37;93685.53;;;-2.10;87.36
85153;BME280;75520;43.358;19.362;2024-02-04T01:35:02;93675.84;;;-2.14;86.61
85153;BME280;75520;43.358;19.362;2024-02-04T01:37:28;93659.84;;;-2.23;86.15
85153;BME280;75520;43.358;19.362;2024-02-04T01:39:53;93633.28;;;-2.42;86.17
85153;BME280;75520;43.358;19.362;2024-02-04T01:42:19;93670.31;;;-2.18;86.06
85153;BME280;75520;43.358;19.362;2024-02-04T01:44:45;93675.75;;;-2.19;86.54
85153;BME280;75520;43.358;19.362;2024-02-04T01:47:10;93645.00;;;-2.39;90.21
85153;BME280;75520;43.358;19.362;2024-02-04T01:49:37;93638.38;;;-2.47;89.94
85153;BME280;75520;43.358;19.362;2024-02-04T01:52:04;93661.09;;;-2.26;90.90
85153;BME280;75520;43.358;19.362;2024-02-04T01:54:31;93660.53;;;-2.28;88.26
85153;BME280;75520;43.358;19.362;2024-02-04T01:56:59;93608.63;;;-2.56;87.76
85153;BME280;75520;43.358;19.362;2024-02-04T01:59:27;93611.66;;;-2.59;86.81
85153;BME280;75520;43.358;19.362;2024-02-04T02:01:58;93619.25;;;-2.57;89.48
85153;BME280;75520;43.358;19.362;2024-02-04T02:04:24;93649.75;;;-2.36;88.73
85153;BME280;75520;43.358;19.362;2024-02-04T02:06:50;93612.94;;;-2.62;90.99
85153;BME280;75520;43.358;19.362;2024-02-04T02:09:16;93637.47;;;-2.41;89.78
85153;BME280;75520;43.358;19.362;2024-02-04T02:12:12;93634.31;;;-2.43;91.94
85153;BME280;75520;43.358;19.362;2024-02-04T02:14:42;93642.66;;;-2.41;91.09
85153;BME280;75520;43.358;19.362;2024-02-04T02:17:14;93643.13;;;-2.44;92.53
85153;BME280;75520;43.358;19.362;2024-02-04T02:20:06;93595.38;;;-2.71;92.99
85153;BME280;75520;43.358;19.362;2024-02-04T02:23:14;93631.63;;;-2.48;93.11
85153;BME280;75520;43.358;19.362;2024-02-04T02:25:45;93639.34;;;-2.53;88.67
85153;BME280;75520;43.358;19.362;2024-02-04T02:28:11;93627.03;;;-2.57;87.80
85153;BME280;75520;43.358;19.362;2024-02-04T02:30:37;93624.66;;;-2.59;89.52
85153;BME280;75520;43.358;19.362;2024-02-04T02:33:03;93625.41;;;-2.64;88.55
85153;BME280;75520;43.358;19.362;2024-02-04T02:35:30;93629.25;;;-2.66;88.05
85153;BME280;75520;43.358;19.362;2024-02-04T02:40:51;93626.81;;;-2.73;89.25
85153;BME280;75520;43.358;19.362;2024-02-04T02:43:18;93616.78;;;-2.81;87.78
85153;BME280;75520;43.358;19.362;2024-02-04T02:45:44;93616.56;;;-2.79;87.40
85153;BME280;75520;43.358;19.362;2024-02-04T02:48:11;93617.03;;;-2.82;86.65
85153;BME280;75520;43.358;19.362;2024-02-04T02:50:37;93619.63;;;-2.82;87.08
85153;BME280;75520;43.358;19.362;2024-02-04T02:53:03;93577.06;;;-3.10;87.54
85153;BME280;75520;43.358;19.362;2024-02-04T02:55:29;93616.91;;;-2.87;90.95
85153;BME280;75520;43.358;19.362;2024-02-04T02:57:55;93619.06;;;-2.84;93.55
85153;BME280;75520;43.358;19.362;2024-02-04T03:00:20;93602.38;;;-2.88;94.33
85153;BME280;75520;43.358;19.362;2024-02-04T03:02:46;93612.06;;;-2.84;94.03
85153;BME280;75520;43.358;19.362;2024-02-04T03:05:12;93587.63;;;-3.00;93.47
85153;BME280;75520;43.358;19.362;2024-02-04T03:07:38;93560.16;;;-3.12;91.00
85153;BME280;75520;43.358;19.362;2024-02-04T03:10:04;93611.72;;;-2.87;89.31
85153;BME280;75520;43.358;19.362;2024-02-04T03:12:29;93609.38;;;-2.89;88.45
85153;BME280;75520;43.358;19.362;2024-02-04T03:14:55;93605.44;;;-2.91;88.66
85153;BME280;75520;43.358;19.362;2024-02-04T03:17:20;93607.72;;;-2.95;88.28
85153;BME280;75520;43.358;19.362;2024-02-04T03:19:48;93550.75;;;-3.30;88.18
85153;BME280;75520;43.358;19.362;2024-02-04T03:22:14;93595.66;;;-3.01;88.05
85153;BME280;75520;43.358;19.362;2024-02-04T03:24:40;93611.09;;;-2.94;90.06
85153;BME280;75520;43.358;19.362;2024-02-04T03:27:06;93611.09;;;-2.94;92.21
85153;BME280;75520;43.358;19.362;2024-02-04T03:29:31;93612.66;;;-2.93;93.45
85153;BME280;75520;43.358;19.362;2024-02-04T03:31:56;93608.03;;;-2.91;95.65
85153;BME280;75520;43.358;19.362;2024-02-04T03:34:22;93607.03;;;-2.90;95.05
85153;BME280;75520;43.358;19.362;2024-02-04T03:36:47;93603.06;;;-2.93;94.69
85153;BME280;75520;43.358;19.362;2024-02-04T03:39:13;93617.72;;;-2.87;92.47
85153;BME280;75520;43.358;19.362;2024-02-04T03:41:39;93581.72;;;-3.12;89.81
85153;BME280;75520;43.358;19.362;2024-02-04T03:44:04;93622.00;;;-2.81;89.35
85153;BME280;75520;43.358;19.362;2024-02-04T03:46:30;93613.41;;;-2.81;89.47
85153;BME280;75520;43.358;19.362;2024-02-04T03:48:56;93623.66;;;-2.75;89.44
85153;BME280;75520;43.358;19.362;2024-02-04T03:51:22;93587.81;;;-2.89;89.45
85153;BME280;75520;43.358;19.362;2024-02-04T03:53:48;93623.25;;;-2.67;89.17
85153;BME280;75520;43.358;19.362;2024-02-04T03:56:14;93623.34;;;-2.62;90.96
85153;BME280;75520;43.358;19.362;2024-02-04T03:58:39;93608.00;;;-2.63;91.29
85153;BME280;75520;43.358;19.362;2024-02-04T04:01:05;93612.09;;;-2.50;90.32
85153;BME280;75520;43.358;19.362;2024-02-04T04:03:30;93611.84;;;-2.49;89.78
85153;BME280;75520;43.358;19.362;2024-02-04T04:05:58;93605.47;;;-2.41;89.38
85153;BME280;75520;43.358;19.362;2024-02-04T04:08:23;93607.59;;;-2.38;89.65
85153;BME280;75520;43.358;19.362;2024-02-04T04:10:49;93616.25;;;-2.33;89.17
85153;BME280;75520;43.358;19.362;2024-02-04T04:13:16;93605.88;;;-2.33;89.03
85153;BME280;75520;43.358;19.362;2024-02-04T04:15:41;93618.63;;;-2.31;88.45
85153;BME280;75520;43.358;19.362;2024-02-04T04:18:07;93612.66;;;-2.32;87.83
85153;BME280;75520;43.358;19.362;2024-02-04T04:20:33;93618.88;;;-2.33;87.91
85153;BME280;75520;43.358;19.362;2024-02-04T04:22:59;93537.72;;;-2.85;88.19
85153;BME280;75520;43.358;19.362;2024-02-04T04:25:24;93601.53;;;-2.44;88.55
85153;BME280;75520;43.358;19.362;2024-02-04T04:27:50;93613.19;;;-2.46;88.56
85153;BME280;75520;43.358;19.362;2024-02-04T04:30:15;93576.63;;;-2.73;88.14
85153;BME280;75520;43.358;19.362;2024-02-04T04:32:41;93605.06;;;-2.50;88.46
85153;BME280;75520;43.358;19.362;2024-02-04T04:35:06;93604.44;;;-2.57;90.68
85153;BME280;75520;43.358;19.362;2024-02-04T04:37:35;93605.72;;;-2.59;91.78
85153;BME280;75520;43.358;19.362;2024-02-04T04:40:01;93600.19;;;-2.63;91.72
85153;BME280;75520;43.358;19.362;2024-02-04T04:42:27;93577.03;;;-2.81;92.75
85153;BME280;75520;43.358;19.362;2024-02-04T04:44:52;93608.53;;;-2.61;92.68
85153;BME280;75520;43.358;19.362;2024-02-04T04:47:18;93559.22;;;-2.89;91.71
85153;BME280;75520;43.358;19.362;2024-02-04T04:49:43;93593.97;;;-2.62;92.05
85153;BME280;75520;43.358;19.362;2024-02-04T04:52:09;93598.16;;;-2.61;91.58
85153;BME280;75520;43.358;19.362;2024-02-04T04:54:34;93591.94;;;-2.60;91.86
85153;BME280;75520;43.358;19.362;2024-02-04T04:57:00;93603.13;;;-2.59;90.66
85153;BME280;75520;43.358;19.362;2024-02-04T04:59:25;93596.06;;;-2.59;89.51
85153;BME280;75520;43.358;19.362;2024-02-04T05:01:51;93600.50;;;-2.59;88.85
85153;BME280;75520;43.358;19.362;2024-02-04T05:04:17;93595.63;;;-2.56;88.93
85153;BME280;75520;43.358;19.362;2024-02-04T05:06:44;93590.97;;;-2.54;88.52
85153;BME280;75520;43.358;19.362;2024-02-04T05:09:09;93591.75;;;-2.53;88.89
85153;BME280;75520;43.358;19.362;2024-02-04T05:11:35;93591.19;;;-2.55;88.99
85153;BME280;75520;43.358;19.362;2024-02-04T05:14:01;93599.78;;;-2.55;88.70
85153;BME280;75520;43.358;19.362;2024-02-04T05:16:26;93569.31;;;-2.76;89.19
85153;BME280;75520;43.358;19.362;2024-02-04T05:18:52;93611.22;;;-2.56;89.32
85153;BME280;75520;43.358;19.362;2024-02-04T05:21:17;93613.25;;;-2.58;89.01
85153;BME280;75520;43.358;19.362;2024-02-04T05:23:42;93606.41;;;-2.64;88.25
85153;BME280;75520;43.358;19.362;2024-02-04T05:26:08;93612.28;;;-2.69;89.13
85153;BME280;75520;43.358;19.362;2024-02-04T05:28:33;93615.06;;;-2.75;90.74
85153;BME280;75520;43.358;19.362;2024-02-04T05:31:01;93620.47;;;-2.77;90.08
85153;BME280;75520;43.358;19.362;2024-02-04T05:33:26;93623.81;;;-2.81;89.06
85153;BME280;75520;43.358;19.362;2024-02-04T05:35:52;93622.91;;;-2.87;90.25
85153;BME280;75520;43.358;19.362;2024-02-04T05:38:17;93622.84;;;-2.92;89.54
85153;BME280;75520;43.358;19.362;2024-02-04T05:40:43;93623.06;;;-2.93;89.70
85153;BME280;75520;43.358;19.362;2024-02-04T05:43:10;93621.41;;;-3.00;90.85
85153;BME280;75520;43.358;19.362;2024-02-04T05:45:39;93619.94;;;-3.07;94.87
85153;BME280;75520;43.358;19.362;2024-02-04T05:48:08;93631.13;;;-3.07;93.75
85153;BME280;75520;43.358;19.362;2024-02-04T05:50:34;93632.63;;;-3.11;93.23
85153;BME280;75520;43.358;19.362;2024-02-04T05:52:59;93633.66;;;-3.12;96.93
85153;BME280;75520;43.358;19.362;2024-02-04T05:55:25;93636.13;;;-3.17;96.58
85153;BME280;75520;43.358;19.362;2024-02-04T05:57:50;93643.94;;;-3.17;95.40
85153;BME280;75520;43.358;19.362;2024-02-04T06:00:16;93632.22;;;-3.19;93.37
85153;BME280;75520;43.358;19.362;2024-02-04T06:02:45;93629.28;;;-3.23;94.42
85153;BME280;75520;43.358;19.362;2024-02-04T06:05:11;93639.44;;;-3.21;93.90
85153;BME280;75520;43.358;19.362;2024-02-04T06:07:36;93636.28;;;-3.23;92.70
85153;BME280;75520;43.358;19.362;2024-02-04T06:10:02;93645.09;;;-3.24;92.30
85153;BME280;75520;43.358;19.362;2024-02-04T06:12:29;93642.72;;;-3.26;90.60
85153;BME280;75520;43.358;19.362;2024-02-04T06:14:54;93647.13;;;-3.26;90.34
85153;BME280;75520;43.358;19.362;2024-02-04T06:17:20;93643.78;;;-3.27;90.28
85153;BME280;75520;43.358;19.362;2024-02-04T06:19:45;93601.72;;;-3.52;93.21
85153;BME280;75520;43.358;19.362;2024-02-04T06:22:11;93655.25;;;-3.23;95.92
85153;BME280;75520;43.358;19.362;2024-02-04T06:24:36;93662.59;;;-3.20;93.88
85153;BME280;75520;43.358;19.362;2024-02-04T06:27:04;93644.88;;;-3.23;92.64
85153;BME280;75520;43.358;19.362;2024-02-04T06:29:30;93654.09;;;-3.15;91.19
85153;BME280;75520;43.358;19.362;2024-02-04T06:31:56;93615.25;;;-3.39;90.94
85153;BME280;75520;43.358;19.362;2024-02-04T06:34:21;93617.13;;;-3.34;90.91
85153;BME280;75520;43.358;19.362;2024-02-04T06:36:47;93597.66;;;-3.48;92.42
85153;BME280;75520;43.358;19.362;2024-02-04T06:39:13;93653.63;;;-3.12;92.31
85153;BME280;75520;43.358;19.362;2024-02-04T06:41:39;93664.38;;;-3.09;91.25
85153;BME280;75520;43.358;19.362;2024-02-04T06:44:05;93661.50;;;-3.07;91.05
85153;BME280;75520;43.358;19.362;2024-02-04T06:46:30;93659.06;;;-3.14;89.87
85153;BME280;75520;43.358;19.362;2024-02-04T06:48:57;93623.09;;;-3.33;89.74
85153;BME280;75520;43.358;19.362;2024-02-04T06:51:22;93666.03;;;-3.03;91.19
85153;BME280;75520;43.358;19.362;2024-02-04T06:53:48;93661.38;;;-3.01;90.53
85153;BME280;75520;43.358;19.362;2024-02-04T06:56:14;93650.91;;;-3.06;91.66
85153;BME280;75520;43.358;19.362;2024-02-04T06:58:40;93664.28;;;-2.97;89.91
85153;BME280;75520;43.358;19.362;2024-02-04T07:01:06;93666.44;;;-2.94;90.62
85153;BME280;75520;43.358;19.362;2024-02-04T07:03:32;93613.31;;;-3.15;90.38
85153;BME280;75520;43.358;19.362;2024-02-04T07:05:59;93663.69;;;-2.87;92.58
85153;BME280;75520;43.358;19.362;2024-02-04T07:08:25;93670.81;;;-2.83;95.50
85153;BME280;75520;43.358;19.362;2024-02-04T07:10:51;93662.78;;;-2.81;94.29
85153;BME280;75520;43.358;19.362;2024-02-04T07:13:17;93657.88;;;-2.78;93.17
85153;BME280;75520;43.358;19.362;2024-02-04T07:15:42;93654.50;;;-2.78;94.16
85153;BME280;75520;43.358;19.362;2024-02-04T07:18:09;93660.59;;;-2.73;94.36
85153;BME280;75520;43.358;19.362;2024-02-04T07:20:34;93665.41;;;-2.65;91.98
85153;BME280;75520;43.358;19.362;2024-02-04T07:23:00;93629.47;;;-2.84;93.90
85153;BME280;75520;43.358;19.362;2024-02-04T07:25:25;93620.66;;;-2.83;93.41
85153;BME280;75520;43.358;19.362;2024-02-04T07:27:51;93665.97;;;-2.46;91.02
85153;BME280;75520;43.358;19.362;2024-02-04T07:30:17;93659.75;;;-2.45;91.26
85153;BME280;75520;43.358;19.362;2024-02-04T07:32:42;93621.84;;;-2.57;91.67
85153;BME280;75520;43.358;19.362;2024-02-04T07:35:08;93667.94;;;-2.19;93.87
85153;BME280;75520;43.358;19.362;2024-02-04T07:37:37;93666.53;;;-2.10;92.57
85153;BME280;75520;43.358;19.362;2024-02-04T07:40:03;93673.00;;;-1.96;90.29
85153;BME280;75520;43.358;19.362;2024-02-04T07:42:30;93658.53;;;-1.87;90.49
85153;BME280;75520;43.358;19.362;2024-02-04T07:44:56;93662.94;;;-1.71;92.30
85153;BME280;75520;43.358;19.362;2024-02-04T07:47:22;93663.06;;;-1.61;91.56
85153;BME280;75520;43.358;19.362;2024-02-04T07:49:48;93671.38;;;-1.42;89.69
85153;BME280;75520;43.358;19.362;2024-02-04T07:52:14;93662.75;;;-1.26;89.52
85153;BME280;75520;43.358;19.362;2024-02-04T07:54:39;93671.03;;;-1.07;88.10
85153;BME280;75520;43.358;19.362;2024-02-04T07:57:05;93634.78;;;-1.08;87.22
85153;BME280;75520;43.358;19.362;2024-02-04T07:59:31;93668.84;;;-0.66;87.32
85153;BME280;75520;43.358;19.362;2024-02-04T08:01:56;93671.63;;;-0.46;86.67
85153;BME280;75520;43.358;19.362;2024-02-04T08:04:22;93665.03;;;-0.27;86.27
85153;BME280;75520;43.358;19.362;2024-02-04T08:06:47;93665.44;;;-0.08;86.00
85153;BME280;75520;43.358;19.362;2024-02-04T08:09:13;93660.66;;;0.16;86.74
85153;BME280;75520;43.358;19.362;2024-02-04T08:11:39;93663.47;;;0.46;86.74
85153;BME280;75520;43.358;19.362;2024-02-04T08:14:04;93653.41;;;0.80;86.88
85153;BME280;75520;43.358;19.362;2024-02-04T08:16:30;93607.16;;;0.76;87.36
85153;BME280;75520;43.358;19.362;2024-02-04T08:18:55;93661.22;;;1.53;87.73
85153;BME280;75520;43.358;19.362;2024-02-04T08:21:21;93667.25;;;2.04;87.73
85153;BME280;75520;43.358;19.362;2024-02-04T08:23:46;93656.47;;;2.56;86.91
85153;BME280;75520;43.358;19.362;2024-02-04T08:26:12;93653.16;;;3.05;86.12
85153;BME280;75520;43.358;19.362;2024-02-04T08:28:38;93657.94;;;3.47;85.42
85153;BME280;75520;43.358;19.362;2024-02-04T08:31:03;93652.69;;;3.86;84.88
85153;BME280;75520;43.358;19.362;2024-02-04T08:33:29;93655.47;;;4.33;84.40
85153;BME280;75520;43.358;19.362;2024-02-04T08:35:54;93663.91;;;4.59;84.14
85153;BME280;75520;43.358;19.362;2024-02-04T08:38:20;93653.22;;;4.74;83.75
85153;BME280;75520;43.358;19.362;2024-02-04T08:40:45;93654.50;;;5.01;83.83
85153;BME280;75520;43.358;19.362;2024-02-04T08:43:11;93659.41;;;5.31;82.50
85153;BME280;75520;43.358;19.362;2024-02-04T08:45:37;93661.44;;;5.58;81.86
85153;BME280;75520;43.358;19.362;2024-02-04T08:48:02;93662.16;;;5.82;82.35
85153;BME280;75520;43.358;19.362;2024-02-04T08:50:28;93653.03;;;6.12;81.31
85153;BME280;75520;43.358;19.362;2024-02-04T08:52:54;93620.34;;;6.27;80.17
85153;BME280;75520;43.358;19.362;2024-02-04T08:55:19;93648.19;;;6.65;80.15
85153;BME280;75520;43.358;19.362;2024-02-04T08:57:45;93636.16;;;6.73;79.09
85153;BME280;75520;43.358;19.362;2024-02-04T09:00:13;93642.41;;;6.50;78.57
85153;BME280;75520;43.358;19.362;2024-02-04T09:02:40;93642.34;;;6.22;78.60
85153;BME280;75520;43.358;19.362;2024-02-04T09:05:06;93649.41;;;6.08;78.53
85153;BME280;75520;43.358;19.362;2024-02-04T09:07:31;93649.50;;;6.03;78.69
85153;BME280;75520;43.358;19.362;2024-02-04T09:09:57;93642.44;;;5.99;78.27
85153;BME280;75520;43.358;19.362;2024-02-04T09:12:22;93642.53;;;5.93;77.92
85153;BME280;75520;43.358;19.362;2024-02-04T09:14:48;93649.38;;;5.94;77.76
85153;BME280;75520;43.358;19.362;2024-02-04T09:17:13;93639.78;;;5.99;78.08
85153;BME280;75520;43.358;19.362;2024-02-04T09:19:39;93640.53;;;6.04;77.82
85153;BME280;75520;43.358;19.362;2024-02-04T09:22:05;93635.44;;;6.08;77.48
85153;BME280;75520;43.358;19.362;2024-02-04T09:24:31;93614.16;;;6.04;77.73
85153;BME280;75520;43.358;19.362;2024-02-04T09:26:57;93636.00;;;6.23;77.96
85153;BME280;75520;43.358;19.362;2024-02-04T09:29:23;93636.56;;;6.53;77.56
85153;BME280;75520;43.358;19.362;2024-02-04T09:31:48;93622.31;;;6.95;76.97
85153;BME280;75520;43.358;19.362;2024-02-04T09:34:18;93617.09;;;7.31;77.14
85153;BME280;75520;43.358;19.362;2024-02-04T09:36:44;93619.47;;;7.68;76.38
85153;BME280;75520;43.358;19.362;2024-02-04T09:39:09;93613.25;;;8.09;75.42
85153;BME280;75520;43.358;19.362;2024-02-04T09:41:35;93603.56;;;8.49;74.11
85153;BME280;75520;43.358;19.362;2024-02-04T09:44:01;93599.53;;;8.82;73.49
85153;BME280;75520;43.358;19.362;2024-02-04T09:46:29;93590.75;;;9.13;72.40
85153;BME280;75520;43.358;19.362;2024-02-04T09:48:55;93543.03;;;9.04;71.10
85153;BME280;75520;43.358;19.362;2024-02-04T09:51:22;93591.13;;;9.63;70.86
85153;BME280;75520;43.358;19.362;2024-02-04T09:53:52;93590.53;;;9.83;66.58
85153;BME280;75520;43.358;19.362;2024-02-04T09:56:18;93587.22;;;10.12;69.23
85153;BME280;75520;43.358;19.362;2024-02-04T09:58:45;93581.16;;;10.37;68.19
85153;BME280;75520;43.358;19.362;2024-02-04T10:01:11;93583.88;;;10.58;68.13
85153;BME280;75520;43.358;19.362;2024-02-04T10:03:38;93573.50;;;10.83;67.74
85153;BME280;75520;43.358;19.362;2024-02-04T10:06:04;93567.88;;;10.84;67.08
85153;BME280;75520;43.358;19.362;2024-02-04T10:08:29;93567.47;;;11.03;66.83
85153;BME280;75520;43.358;19.362;2024-02-04T10:10:55;93561.06;;;11.04;65.75
85153;BME280;75520;43.358;19.362;2024-02-04T10:13:21;93565.16;;;11.31;65.46
85153;BME280;75520;43.358;19.362;2024-02-04T10:15:48;93541.63;;;11.41;64.97
85153;BME280;75520;43.358;19.362;2024-02-04T10:18:14;93555.66;;;11.71;64.32
85153;BME280;75520;43.358;19.362;2024-02-04T10:20:39;93544.59;;;12.02;63.80
85153;BME280;75520;43.358;19.362;2024-02-04T10:23:05;93544.63;;;12.35;63.22
85153;BME280;75520;43.358;19.362;2024-02-04T10:25:31;93536.91;;;12.67;62.97
85153;BME280;75520;43.358;19.362;2024-02-04T10:27:57;93535.38;;;13.02;61.78
85153;BME280;75520;43.358;19.362;2024-02-04T10:30:23;93532.31;;;13.24;61.59
85153;BME280;75520;43.358;19.362;2024-02-04T10:32:53;93521.13;;;13.47;56.21
85153;BME280;75520;43.358;19.362;2024-02-04T10:35:23;93506.22;;;13.70;55.71
85153;BME280;75520;43.358;19.362;2024-02-04T10:37:49;93487.72;;;13.77;58.93
85153;BME280;75520;43.358;19.362;2024-02-04T10:40:18;93503.44;;;13.94;51.31
85153;BME280;75520;43.358;19.362;2024-02-04T10:42:44;93505.06;;;14.11;58.75
85153;BME280;75520;43.358;19.362;2024-02-04T10:45:10;93503.31;;;14.03;58.30
85153;BME280;75520;43.358;19.362;2024-02-04T10:47:39;93494.59;;;14.06;53.73
85153;BME280;75520;43.358;19.362;2024-02-04T10:50:05;93488.44;;;14.18;57.25
85153;BME280;75520;43.358;19.362;2024-02-04T10:52:44;93475.22;;;14.37;51.45
85153;BME280;75520;43.358;19.362;2024-02-04T10:55:11;93481.69;;;14.83;56.86
85153;BME280;75520;43.358;19.362;2024-02-04T10:57:38;93471.31;;;15.13;56.47
85153;BME280;75520;43.358;19.362;2024-02-04T11:00:05;93473.03;;;15.21;55.85
85153;BME280;75520;43.358;19.362;2024-02-04T11:02:35;93472.44;;;15.12;56.02
85153;BME280;75520;43.358;19.362;2024-02-04T11:05:05;93475.94;;;15.32;55.24
85153;BME280;75520;43.358;19.362;2024-02-04T11:07:34;93469.38;;;15.29;50.95
85153;BME280;75520;43.358;19.362;2024-02-04T11:10:02;93473.72;;;15.53;52.41
85153;BME280;75520;43.358;19.362;2024-02-04T11:12:29;93459.13;;;16.05;54.14
85153;BME280;75520;43.358;19.362;2024-02-04T11:14:59;93440.91;;;16.37;51.85
85153;BME280;75520;43.358;19.362;2024-02-04T11:20:28;93437.25;;;16.90;45.43
85153;BME280;75520;43.358;19.362;2024-02-04T11:25:52;93437.25;;;17.17;46.80
85153;BME280;75520;43.358;19.362;2024-02-04T11:28:19;93439.94;;;17.17;51.11
85153;BME280;75520;43.358;19.362;2024-02-04T11:30:47;93445.06;;;17.55;49.64
85153;BME280;75520;43.358;19.362;2024-02-04T11:33:17;93437.66;;;17.19;44.89
85153;BME280;75520;43.358;19.362;2024-02-04T11:35:43;93439.16;;;16.90;50.75
85153;BME280;75520;43.358;19.362;2024-02-04T11:38:09;93431.28;;;16.55;50.39
85153;BME280;75520;43.358;19.362;2024-02-04T11:40:37;93395.09;;;16.42;50.25
85153;BME280;75520;43.358;19.362;2024-02-04T11:43:07;93412.63;;;17.11;45.55
85153;BME280;75520;43.358;19.362;2024-02-04T11:45:43;93405.44;;;17.75;44.23
85153;BME280;75520;43.358;19.362;2024-02-04T11:48:10;93408.41;;;18.40;47.10
85153;BME280;75520;43.358;19.362;2024-02-04T11:50:37;93398.78;;;18.80;46.78
85153;BME280;75520;43.358;19.362;2024-02-04T11:53:11;93399.34;;;19.07;42.35
85153;BME280;75520;43.358;19.362;2024-02-04T11:55:39;93389.06;;;19.19;44.11
85153;BME280;75520;43.358;19.362;2024-02-04T11:58:05;93391.47;;;19.39;45.68
85153;BME280;75520;43.358;19.362;2024-02-04T12:00:37;93379.72;;;19.68;45.58
85153;BME280;75520;43.358;19.362;2024-02-04T12:03:04;93387.88;;;19.93;44.86
85153;BME280;75520;43.358;19.362;2024-02-04T12:05:37;93389.84;;;20.14;40.45
85153;BME280;75520;43.358;19.362;2024-02-04T12:08:07;93371.03;;;20.38;41.75
85153;BME280;75520;43.358;19.362;2024-02-04T12:10:34;93368.75;;;20.72;43.56
85153;BME280;75520;43.358;19.362;2024-02-04T12:13:05;93365.25;;;20.86;40.54
85153;BME280;75520;43.358;19.362;2024-02-04T12:15:34;93360.22;;;21.09;40.98
85153;BME280;75520;43.358;19.362;2024-02-04T12:18:09;93359.06;;;21.14;36.85
85153;BME280;75520;43.358;19.362;2024-02-04T12:20:36;93326.28;;;21.12;41.85
85153;BME280;75520;43.358;19.362;2024-02-04T12:23:05;93350.59;;;21.19;38.49
85153;BME280;75520;43.358;19.362;2024-02-04T12:25:32;93348.25;;;21.25;41.23
85153;BME280;75520;43.358;19.362;2024-02-04T12:27:59;93329.00;;;21.23;40.46
85153;BME280;75520;43.358;19.362;2024-02-04T12:30:26;93345.13;;;21.40;40.93
85153;BME280;75520;43.358;19.362;2024-02-04T12:33:03;93336.19;;;21.58;35.80
85153;BME280;75520;43.358;19.362;2024-02-04T12:35:32;93340.63;;;22.03;40.23
85153;BME280;75520;43.358;19.362;2024-02-04T12:37:59;93332.38;;;22.28;39.90
85153;BME280;75520;43.358;19.362;2024-02-04T12:40:26;93329.53;;;22.46;39.79
85153;BME280;75520;43.358;19.362;2024-02-04T12:42:58;93331.75;;;22.58;35.57
85153;BME280;75520;43.358;19.362;2024-02-04T12:45:25;93334.19;;;22.45;38.45
85153;BME280;75520;43.358;19.362;2024-02-04T12:47:52;93325.38;;;22.34;38.35
85153;BME280;75520;43.358;19.362;2024-02-04T12:50:18;93300.63;;;22.36;38.07
85153;BME280;75520;43.358;19.362;2024-02-04T12:52:49;93280.91;;;22.39;34.21
85153;BME280;75520;43.358;19.362;2024-02-04T12:55:25;93321.75;;;22.51;33.56